Time;durP1;ratioP1;P1;durP2;ratioP2;P2;SDS_P1;SDS_P2;PMS_P1;PMS_P2;Temp;Humidity;BMP_temperature;BMP_pressure;BME280_temperature;BME280_humidity;BME280_pressure;Samples;Min_cycle;Max_cycle;Signal;HPM_P1;HPM_P2
2022/06/02 00:00:14;;;;;;;2.53;2.33;;;;;;;6.64;100.00;102149.75;5050444;28;20040;-74
2022/06/02 00:02:57;;;;;;;3.63;2.47;;;;;;;6.60;99.77;102150.84;5050469;28;20068;-74
2022/06/02 00:05:51;;;;;;;5.63;3.13;;;;;;;6.58;100.00;102153.56;5050333;28;20166;-73
2022/06/02 00:08:34;;;;;;;3.50;3.20;;;;;;;6.59;100.00;102150.00;5049675;28;20142;-75
2022/06/02 00:11:16;;;;;;;3.75;2.92;;;;;;;6.57;100.00;102151.00;5050021;28;20025;-74
2022/06/02 00:14:03;;;;;;;3.47;2.60;;;;;;;6.56;100.00;102157.25;5048667;28;20419;-74
2022/06/02 00:17:03;;;;;;;3.15;2.70;;;;;;;6.49;100.00;102148.75;5050259;28;20040;-74
2022/06/02 00:19:52;;;;;;;3.53;2.42;;;;;;;6.47;100.00;102150.63;5044643;28;20041;-74
2022/06/02 00:22:29;;;;;;;3.13;2.70;;;;;;;6.42;100.00;102153.53;5050008;28;20448;-75
2022/06/02 00:25:08;;;;;;;3.55;2.40;;;;;;;6.39;100.00;102155.47;5049996;28;20087;-74
2022/06/02 00:27:42;;;;;;;3.25;2.95;;;;;;;6.41;100.00;102159.75;5050493;28;20417;-74
2022/06/02 00:30:25;;;;;;;3.85;3.47;;;;;;;6.41;100.00;102162.38;5049893;28;20421;-75
2022/06/02 00:33:21;;;;;;;3.10;2.80;;;;;;;6.37;100.00;102163.47;5050299;28;20361;-74
2022/06/02 00:35:57;;;;;;;3.72;2.58;;;;;;;6.31;100.00;102164.63;5049754;28;20429;-74
2022/06/02 00:38:34;;;;;;;3.60;2.75;;;;;;;6.27;100.00;102163.09;5050050;28;20370;-74
2022/06/02 00:41:23;;;;;;;4.85;3.38;;;;;;;6.27;100.00;102160.47;5049641;28;20033;-74
2022/06/02 00:44:08;;;;;;;4.22;3.28;;;;;;;6.26;100.00;102158.75;5049465;28;20073;-76
2022/06/02 00:46:52;;;;;;;4.72;3.88;;;;;;;6.23;100.00;102160.69;5049421;28;20151;-74
2022/06/02 00:49:36;;;;;;;3.33;3.03;;;;;;;6.22;100.00;102158.97;5049907;28;20040;-74
2022/06/02 00:52:07;;;;;;;3.65;3.08;;;;;;;6.15;100.00;102158.41;5049902;28;20040;-74
2022/06/02 00:58:09;;;;;;;3.85;3.47;;;;;;;6.13;100.00;102162.94;5049828;28;20499;-74
2022/06/02 01:00:55;;;;;;;3.95;3.58;;;;;;;6.09;100.00;102154.34;5049965;28;20021;-74
2022/06/02 01:03:31;;;;;;;4.70;3.83;;;;;;;6.09;100.00;102158.75;5049989;28;20039;-74
2022/06/02 01:06:18;;;;;;;6.18;4.00;;;;;;;6.14;100.00;102162.88;5048497;28;20386;-74
2022/06/02 01:08:55;;;;;;;6.97;4.65;;;;;;;6.14;100.00;102160.22;5049755;28;20116;-74
2022/06/02 01:11:37;;;;;;;4.95;3.80;;;;;;;6.14;100.00;102167.31;5049684;28;20092;-75
2022/06/02 01:14:24;;;;;;;5.07;3.80;;;;;;;6.11;100.00;102156.91;5049677;28;20123;-75
2022/06/02 01:17:01;;;;;;;3.78;3.38;;;;;;;6.10;100.00;102166.59;5048392;28;20330;-74
2022/06/02 01:19:56;;;;;;;5.38;4.10;;;;;;;6.08;100.00;102172.91;5047796;28;20029;-74
2022/06/02 01:22:33;;;;;;;3.88;3.47;;;;;;;6.05;100.00;102173.06;5049618;28;20033;-74
2022/06/02 01:25:48;;;;;;;3.60;3.30;;;;;;;6.00;100.00;102171.50;5049718;28;20029;-74
2022/06/02 01:28:37;;;;;;;3.60;3.30;;;;;;;5.94;100.00;102170.91;5027263;28;20554;-75
2022/06/02 01:31:07;;;;;;;3.63;3.30;;;;;;;5.89;100.00;102176.41;5028132;28;20121;-75
2022/06/02 01:33:45;;;;;;;4.20;3.30;;;;;;;5.83;100.00;102169.63;5046850;28;20110;-75
2022/06/02 01:36:28;;;;;;;4.20;3.60;;;;;;;5.79;100.00;102165.47;5052919;28;20086;-75
2022/06/02 01:39:12;;;;;;;5.28;4.40;;;;;;;5.81;100.00;102168.88;5053188;28;20040;-74
2022/06/02 01:42:11;;;;;;;7.15;4.57;;;;;;;5.84;100.00;102167.88;5052695;28;20025;-75
2022/06/02 01:44:46;;;;;;;5.63;4.85;;;;;;;5.85;100.00;102171.38;5051640;28;20340;-74
2022/06/02 01:47:35;;;;;;;6.03;5.32;;;;;;;5.85;100.00;102179.28;5053163;28;20093;-74
2022/06/02 01:50:46;;;;;;;4.25;3.85;;;;;;;5.82;100.00;102178.53;5051321;28;20103;-75
2022/06/02 01:53:50;;;;;;;4.20;3.70;;;;;;;5.75;100.00;102165.69;5053199;28;20112;-74
2022/06/02 01:56:23;;;;;;;4.25;3.85;;;;;;;5.71;100.00;102172.03;5052226;28;20306;-74
2022/06/02 01:58:57;;;;;;;4.22;3.88;;;;;;;5.71;100.00;102172.88;5052232;28;20102;-75
2022/06/02 02:01:52;;;;;;;5.03;4.18;;;;;;;5.70;100.00;102176.44;5052661;28;20175;-75
2022/06/02 02:04:27;;;;;;;4.82;4.32;;;;;;;5.65;100.00;102168.75;5052388;28;20051;-75
2022/06/02 02:07:09;;;;;;;4.90;4.13;;;;;;;5.61;100.00;102169.84;5052300;28;20036;-75
2022/06/02 02:10:02;;;;;;;4.07;3.38;;;;;;;5.59;100.00;102173.50;5051828;28;20045;-75
2022/06/02 02:12:49;;;;;;;4.88;4.13;;;;;;;5.57;100.00;102170.06;5052093;28;20039;-75
2022/06/02 02:15:26;;;;;;;4.65;3.67;;;;;;;5.55;100.00;102174.56;5050712;28;20017;-74
2022/06/02 02:18:22;;;;;;;4.72;4.32;;;;;;;5.52;100.00;102170.28;5052020;28;20033;-75
2022/06/02 02:21:00;;;;;;;5.38;4.55;;;;;;;5.50;100.00;102173.94;5052038;28;20025;-74
2022/06/02 02:23:38;;;;;;;4.82;4.43;;;;;;;5.47;100.00;102178.41;5034027;28;20035;-75
2022/06/02 02:26:25;;;;;;;6.38;5.25;;;;;;;5.47;100.00;102180.22;5052146;28;20099;-74
2022/06/02 02:29:00;;;;;;;6.15;5.30;;;;;;;5.47;100.00;102178.41;5051930;28;20079;-75
2022/06/02 02:31:25;;;;;;;4.97;4.47;;;;;;;5.45;100.00;102177.66;5050368;28;20437;-75
2022/06/02 02:34:18;;;;;;;5.28;4.20;;;;;;;5.39;100.00;102182.34;5052073;28;20115;-74
2022/06/02 02:37:07;;;;;;;6.28;4.45;;;;;;;5.40;100.00;102178.78;5052284;28;20104;-74
2022/06/02 02:39:50;;;;;;;6.50;4.88;;;;;;;5.37;100.00;102182.44;5050928;28;20405;-74
2022/06/02 02:42:29;;;;;;;4.72;4.32;;;;;;;5.32;100.00;102183.59;5050791;28;20203;-75
2022/06/02 02:45:09;;;;;;;5.38;4.75;;;;;;;5.32;100.00;102186.22;5051747;28;20132;-74
2022/06/02 02:47:44;;;;;;;5.13;4.63;;;;;;;5.32;100.00;102183.59;5051651;28;20052;-75
2022/06/02 02:50:25;;;;;;;6.10;5.47;;;;;;;5.30;100.00;102179.22;5051705;28;20028;-74
2022/06/02 02:52:50;;;;;;;6.10;4.80;;;;;;;5.29;100.00;102185.44;5050675;28;20029;-74
2022/06/02 02:55:19;;;;;;;4.85;4.32;;;;;;;5.28;100.00;102189.00;5051478;28;20108;-74
2022/06/02 02:58:22;;;;;;;4.97;4.43;;;;;;;5.24;100.00;102182.16;5051767;28;20347;-74
2022/06/02 03:01:05;;;;;;;5.70;4.57;;;;;;;5.21;100.00;102178.78;5049858;28;20325;-74
2022/06/02 03:03:39;;;;;;;5.18;4.38;;;;;;;5.19;100.00;102192.06;5051296;28;20495;-74
2022/06/02 03:06:18;;;;;;;5.35;4.85;;;;;;;5.18;100.00;102189.50;5051139;28;20114;-74
2022/06/02 03:08:47;;;;;;;6.60;5.30;;;;;;;5.17;100.00;102188.66;5050802;28;20507;-75
2022/06/02 03:11:50;;;;;;;4.47;4.07;;;;;;;5.15;100.00;102189.63;5051118;28;20025;-75
2022/06/02 03:14:39;;;;;;;5.40;4.90;;;;;;;5.14;100.00;102191.44;5032623;28;20495;-76
2022/06/02 03:17:40;;;;;;;5.45;4.45;;;;;;;5.10;100.00;102195.13;5051303;28;20049;-75
2022/06/02 03:20:37;;;;;;;6.68;4.68;;;;;;;5.08;100.00;102191.72;5050442;28;20041;-75
2022/06/02 03:23:22;;;;;;;6.15;4.65;;;;;;;5.07;100.00;102195.28;5051085;28;20163;-75
2022/06/02 03:25:53;;;;;;;5.32;4.72;;;;;;;5.05;100.00;102192.69;5050841;28;20100;-75
2022/06/02 03:28:24;;;;;;;4.83;4.43;;;;;;;5.03;100.00;102189.28;5050859;28;20047;-75
2022/06/02 03:31:03;;;;;;;6.22;5.28;;;;;;;5.03;100.00;102191.06;5051217;28;20052;-75
2022/06/02 03:33:50;;;;;;;5.13;4.63;;;;;;;5.03;100.00;102191.06;5050881;28;20043;-75
2022/06/02 03:36:27;;;;;;;7.13;6.18;;;;;;;5.03;100.00;102191.06;5050845;28;20107;-75
2022/06/02 03:39:08;;;;;;;5.82;4.60;;;;;;;5.00;100.00;102192.06;5050532;28;20410;-75
2022/06/02 03:41:49;;;;;;;6.00;4.97;;;;;;;4.98;100.00;102198.34;5050955;28;20040;-74
2022/06/02 03:44:40;;;;;;;5.80;5.20;;;;;;;4.95;100.00;102201.97;5050375;28;20090;-75
2022/06/02 03:47:21;;;;;;;6.45;5.22;;;;;;;4.95;100.00;102208.06;5051177;28;20068;-74
2022/06/02 03:50:20;;;;;;;5.82;5.30;;;;;;;4.94;100.00;102201.13;5050822;28;20029;-75
2022/06/02 03:53:17;;;;;;;8.77;6.18;;;;;;;4.98;100.00;102212.38;5050486;28;20029;-74
2022/06/02 03:55:52;;;;;;;7.75;5.63;;;;;;;5.02;100.00;102206.03;5050544;28;20349;-75
2022/06/02 03:58:45;;;;;;;5.95;5.07;;;;;;;5.02;100.00;102213.09;5050727;28;20135;-75
2022/06/02 04:01:18;;;;;;;5.32;4.82;;;;;;;5.01;100.00;102216.66;5050268;28;20028;-75
2022/06/02 04:03:58;;;;;;;10.27;5.05;;;;;;;5.03;100.00;102213.03;5050359;28;20104;-75
2022/06/02 04:06:35;;;;;;;7.40;6.28;;;;;;;5.09;100.00;102217.16;5050838;28;20090;-74
2022/06/02 04:09:02;;;;;;;7.53;5.93;;;;;;;5.11;100.00;102210.03;5049141;28;20492;-75
2022/06/02 04:15:07;;;;;;;5.38;4.78;;;;;;;5.14;100.00;102216.97;5042659;28;20372;-75
2022/06/02 04:17:45;;;;;;;6.07;5.47;;;;;;;5.14;100.00;102211.69;5050927;28;20127;-75
2022/06/02 04:20:34;;;;;;;7.28;5.15;;;;;;;5.17;100.00;102230.88;5050736;28;20116;-75
2022/06/02 04:23:21;;;;;;;6.15;5.47;;;;;;;5.21;100.00;102227.16;5050380;28;20114;-75
2022/06/02 04:25:49;;;;;;;6.40;5.80;;;;;;;5.25;100.00;102226.06;5050031;28;20025;-75
2022/06/02 04:28:23;;;;;;;5.15;4.65;;;;;;;5.29;100.00;102229.44;5050084;28;20035;-75
2022/06/02 04:31:28;;;;;;;7.78;5.07;;;;;;;5.37;100.00;102234.38;5050352;28;20037;-75
2022/06/02 04:34:31;;;;;;;7.60;5.47;;;;;;;5.45;100.00;102234.88;5048873;28;20418;-74
2022/06/02 04:37:12;;;;;;;6.72;5.82;;;;;;;5.51;100.00;102239.88;5050003;28;20028;-74
2022/06/02 04:39:51;;;;;;;6.18;5.57;;;;;;;5.57;100.00;102244.84;5050031;28;20067;-75
2022/06/02 04:42:41;;;;;;;5.63;5.10;;;;;;;5.65;100.00;102255.91;5050058;28;20033;-74
2022/06/02 04:45:18;;;;;;;5.75;5.20;;;;;;;5.73;100.00;102255.56;5049559;28;20029;-75
2022/06/02 04:47:52;;;;;;;5.90;5.28;;;;;;;5.81;100.00;102257.84;5050109;28;20029;-75
2022/06/02 04:50:27;;;;;;;6.72;5.85;;;;;;;5.87;100.00;102260.19;5050062;28;20062;-75
2022/06/02 04:53:03;;;;;;;8.40;7.30;;;;;;;5.92;100.00;102260.81;5050411;28;20052;-75
2022/06/02 04:55:40;;;;;;;17.45;11.00;;;;;;;6.01;100.00;102256.91;5050259;28;20426;-74
2022/06/02 04:58:23;;;;;;;12.73;9.73;;;;;;;6.09;100.00;102259.16;5050147;28;20080;-75
2022/06/02 05:01:00;;;;;;;12.57;8.38;;;;;;;6.18;100.00;102264.84;5050107;28;20079;-75
2022/06/02 05:03:39;;;;;;;9.10;7.43;;;;;;;6.27;100.00;102257.38;5050331;28;20040;-75
2022/06/02 05:06:23;;;;;;;7.50;6.40;;;;;;;6.37;100.00;102271.03;5051515;28;20036;-76
2022/06/02 05:08:58;;;;;;;8.95;6.80;;;;;;;6.48;100.00;102266.06;5053040;28;20037;-74
2022/06/02 05:11:44;;;;;;;7.05;5.65;;;;;;;6.61;100.00;102274.22;5053920;28;20055;-75
2022/06/02 05:14:37;;;;;;;6.53;5.78;;;;;;;6.73;100.00;102270.94;5054589;28;20033;-75
2022/06/02 05:17:21;;;;;;;8.73;6.05;;;;;;;6.89;100.00;102277.13;5054676;28;20059;-76
2022/06/02 05:19:49;;;;;;;8.75;7.18;;;;;;;7.04;100.00;102274.63;5053910;28;20060;-74
2022/06/02 05:22:51;;;;;;;7.60;6.72;;;;;;;7.23;100.00;102282.47;5053666;28;20025;-74
2022/06/02 05:25:22;;;;;;;8.35;6.57;;;;;;;7.41;100.00;102277.97;5053419;28;20138;-74
2022/06/02 05:28:11;;;;;;;7.57;6.50;;;;;;;7.58;100.00;102277.03;5052018;28;20070;-75
2022/06/02 05:31:09;;;;;;;10.55;7.95;;;;;;;7.80;100.00;102278.50;5053062;28;20045;-74
2022/06/02 05:34:07;;;;;;;8.60;7.25;;;;;;;8.04;100.00;102285.06;5052049;28;20033;-77
2022/06/02 05:36:37;;;;;;;8.02;6.97;;;;;;;8.27;100.00;102282.88;5053912;28;20110;-77
2022/06/02 05:39:54;;;;;;;9.65;8.70;;;;;;;8.43;100.00;102291.69;5053826;28;20077;-75
2022/06/02 05:42:45;;;;;;;10.82;7.82;;;;;;;8.54;100.00;102285.78;5030426;28;20060;-75
2022/06/02 05:45:41;;;;;;;7.97;6.18;;;;;;;8.66;100.00;102286.84;5030364;28;20100;-82
2022/06/02 05:48:21;;;;;;;10.73;6.95;;;;;;;8.81;100.00;102285.06;5051476;28;20044;-74
2022/06/02 05:51:01;;;;;;;9.80;7.68;;;;;;;8.99;100.00;102289.25;5052268;28;20475;-75
2022/06/02 05:53:42;;;;;;;10.98;7.75;;;;;;;9.23;100.00;102279.91;5053046;28;20031;-74
2022/06/02 05:56:17;;;;;;;16.17;13.23;;;;;;;9.43;100.00;102287.44;5052487;28;20055;-75
2022/06/02 05:59:00;;;;;;;11.90;8.93;;;;;;;9.66;100.00;102286.00;5052316;28;20021;-75
2022/06/02 06:01:27;;;;;;;7.35;6.63;;;;;;;9.83;100.00;102289.41;5050922;28;20079;-73
2022/06/02 06:04:18;;;;;;;7.85;6.05;;;;;;;10.07;100.00;102289.59;5051204;28;20033;-72
2022/06/02 06:07:01;;;;;;;8.90;5.95;;;;;;;10.45;100.00;102293.38;5052524;28;20127;-72
2022/06/02 06:09:43;;;;;;;5.55;4.28;;;;;;;10.69;100.00;102297.03;5052771;28;20025;-72
2022/06/02 06:12:14;;;;;;;;;;;;;;;10.88;100.00;102293.13;5053349;28;20029;-73
2022/06/02 06:15:05;;;;;;;8.30;4.78;;;;;;;11.11;100.00;102289.72;5051899;28;19908;-73
2022/06/02 06:17:48;;;;;;;4.05;3.60;;;;;;;11.37;99.07;102283.50;5052001;28;20040;-73
2022/06/02 06:20:35;;;;;;;5.88;3.40;;;;;;;11.65;97.96;102291.22;5052439;28;20045;-73
2022/06/02 06:23:20;;;;;;;4.07;3.10;;;;;;;11.95;93.20;102295.31;5052069;28;20525;-72
2022/06/02 06:26:18;;;;;;;4.45;2.33;;;;;;;12.10;89.30;102301.34;5051694;28;20033;-72
2022/06/02 06:28:57;;;;;;;6.13;3.05;;;;;;;12.33;85.83;102304.13;5052139;28;20095;-72
2022/06/02 06:31:51;;;;;;;9.52;3.17;;;;;;;12.61;86.93;102296.69;5051782;28;20441;-72
2022/06/02 06:35:06;;;;;;;3.53;2.40;;;;;;;13.10;83.77;102302.75;5050706;28;20182;-73
2022/06/02 06:38:09;;;;;;;4.50;2.97;;;;;;;13.45;79.92;102308.03;5049369;28;20442;-73
2022/06/02 06:40:53;;;;;;;3.70;3.40;;;;;;;13.65;78.49;102298.41;5038989;28;20070;-72
2022/06/02 06:43:35;;;;;;;4.88;3.00;;;;;;;13.96;77.00;102308.41;5051660;28;20516;-72
2022/06/02 06:46:16;;;;;;;;;;;;;;;14.25;77.83;102298.84;5051657;28;20073;-73
2022/06/02 06:48:45;;;;;;;;;;;;;;;14.56;74.59;102303.47;5051694;28;19912;-73
2022/06/02 06:51:20;;;;;;;4.13;3.00;;;;;;;14.67;67.92;102311.47;5051118;28;19916;-72
2022/06/02 06:54:06;;;;;;;3.75;2.53;;;;;;;15.02;69.28;102312.09;5051320;28;20033;-72
2022/06/02 06:56:39;;;;;;;3.42;2.25;;;;;;;15.37;65.75;102319.75;5051262;28;20103;-73
2022/06/02 06:59:34;;;;;;;4.10;2.40;;;;;;;15.58;67.95;102324.22;5051538;28;20428;-73
2022/06/02 07:02:06;;;;;;;8.00;2.58;;;;;;;15.78;63.93;102330.50;5050939;28;20442;-73
2022/06/02 07:04:45;;;;;;;4.50;2.35;;;;;;;15.83;63.66;102329.13;5051180;28;20131;-72
2022/06/02 07:07:37;;;;;;;4.57;2.30;;;;;;;16.01;63.07;102328.47;5051688;28;20039;-72
2022/06/02 07:10:38;;;;;;;3.97;2.10;;;;;;;16.27;61.81;102330.59;5051671;28;20477;-72
2022/06/02 07:13:15;;;;;;;3.60;2.30;;;;;;;16.32;58.53;102329.19;5051542;28;20087;-72
2022/06/02 07:15:47;;;;;;;5.93;2.20;;;;;;;16.38;62.35;102334.00;5051417;28;20087;-71
2022/06/02 07:18:40;;;;;;;4.05;2.10;;;;;;;16.56;59.29;102338.69;5051600;28;20116;-72
2022/06/02 07:21:11;;;;;;;2.35;1.92;;;;;;;16.60;60.85;102336.53;5039465;28;20082;-72
2022/06/02 07:23:55;;;;;;;4.10;2.25;;;;;;;16.43;58.65;102333.56;5051189;28;20084;-72
2022/06/02 07:26:57;;;;;;;4.80;2.38;;;;;;;16.36;58.86;102340.50;5051224;28;20036;-72
2022/06/02 07:29:39;;;;;;;3.42;2.25;;;;;;;16.21;58.45;102350.81;5050341;28;20112;-72
2022/06/02 07:32:23;;;;;;;;;;;;;;;16.33;62.71;102349.72;5050527;28;20025;-72
2022/06/02 07:35:02;;;;;;;3.60;2.00;;;;;;;16.52;58.10;102348.84;5050929;28;20015;-72
2022/06/02 07:37:52;;;;;;;4.07;1.90;;;;;;;16.81;58.61;102342.63;5051307;28;20033;-71
2022/06/02 07:40:20;;;;;;;2.42;2.10;;;;;;;16.89;57.67;102348.13;5051160;28;20120;-72
2022/06/02 07:43:14;;;;;;;3.10;1.90;;;;;;;17.03;57.77;102349.56;5050731;28;20112;-72
2022/06/02 07:45:57;;;;;;;4.20;2.17;;;;;;;17.04;54.79;102356.59;5050945;28;20041;-72
2022/06/02 07:48:33;;;;;;;2.20;1.95;;;;;;;17.13;55.56;102357.56;5050949;28;20155;-72
2022/06/02 07:51:14;;;;;;;3.47;1.75;;;;;;;17.41;57.09;102360.34;5050402;28;20029;-71
2022/06/02 07:54:00;;;;;;;2.65;1.88;;;;;;;17.82;55.42;102368.06;5049562;28;20033;-73
2022/06/02 07:56:36;;;;;;;4.85;1.70;;;;;;;17.87;53.13;102358.56;5050574;28;20087;-72
2022/06/02 07:59:25;;;;;;;3.63;1.80;;;;;;;17.79;55.19;102363.84;5050919;28;20048;-72
2022/06/02 08:02:13;;;;;;;6.95;2.20;;;;;;;17.84;52.11;102353.47;5050640;28;20330;-72
2022/06/02 08:05:00;;;;;;;2.75;1.80;;;;;;;18.03;52.41;102365.16;5050807;28;20132;-73
2022/06/02 08:07:35;;;;;;;2.95;1.70;;;;;;;18.15;54.78;102366.63;5050177;28;20452;-73
2022/06/02 08:10:19;;;;;;;4.45;2.05;;;;;;;18.14;52.11;102368.47;5050828;28;20417;-72
2022/06/02 08:13:08;;;;;;;3.10;1.70;;;;;;;17.81;51.30;102367.25;5050329;28;20021;-72
2022/06/02 08:15:46;;;;;;;5.72;2.33;;;;;;;17.92;53.84;102371.59;5049256;28;20441;-71
2022/06/02 08:18:42;;;;;;;3.60;1.70;;;;;;;18.21;53.00;102371.41;5050712;28;20029;-73
2022/06/02 08:21:16;;;;;;;4.65;1.70;;;;;;;18.62;51.46;102373.66;5050561;28;20068;-71
2022/06/02 08:24:07;;;;;;;3.15;1.88;;;;;;;18.75;51.22;102381.34;5050798;28;20035;-71
2022/06/02 08:26:43;;;;;;;2.57;1.53;;;;;;;18.77;48.86;102376.66;5039656;28;20052;-72
2022/06/02 08:29:43;;;;;;;4.18;1.90;;;;;;;18.65;50.27;102371.50;5050790;28;20251;-72
2022/06/02 08:32:27;;;;;;;2.20;1.45;;;;;;;18.51;48.44;102366.63;5050659;28;20017;-72
2022/06/02 08:35:04;;;;;;;3.28;1.77;;;;;;;18.17;48.53;102367.34;5050289;28;20052;-72
2022/06/02 08:38:04;;;;;;;3.35;1.77;;;;;;;17.84;49.50;102366.94;5050284;28;20029;-72
2022/06/02 08:40:53;;;;;;;5.95;1.95;;;;;;;17.67;50.47;102373.09;5049947;28;20372;-72
2022/06/02 08:43:34;;;;;;;5.43;2.03;;;;;;;17.25;50.03;102375.22;5054379;28;20039;-72
2022/06/02 08:46:27;;;;;;;1.92;1.55;;;;;;;16.88;53.58;102378.72;5054142;28;20069;-72
2022/06/02 08:49:20;;;;;;;6.95;2.10;;;;;;;16.50;53.73;102384.91;5052697;28;20029;-72
2022/06/02 08:52:23;;;;;;;3.80;2.05;;;;;;;16.22;55.28;102385.56;5053693;28;20029;-72
2022/06/02 08:55:13;;;;;;;3.42;2.10;;;;;;;16.36;56.01;102386.16;5053728;28;20106;-72
2022/06/02 08:58:00;;;;;;;3.05;1.80;;;;;;;16.69;55.16;102384.91;5054087;28;20451;-72
2022/06/02 09:00:43;;;;;;;2.40;2.03;;;;;;;17.59;48.93;102373.84;5053535;28;20040;-71
2022/06/02 09:03:37;;;;;;;6.45;2.33;;;;;;;18.78;47.95;102378.31;5053883;28;20073;-72
2022/06/02 09:06:40;;;;;;;3.60;2.30;;;;;;;18.60;48.36;102381.91;5054029;28;20521;-72
2022/06/02 09:09:30;;;;;;;4.35;2.10;;;;;;;18.66;49.93;102383.09;5053669;28;20025;-73
2022/06/02 09:12:33;;;;;;;4.50;2.40;;;;;;;19.48;46.51;102383.75;5055280;28;20044;-73
2022/06/02 09:15:02;;;;;;;6.53;1.70;;;;;;;19.11;47.85;102384.88;5054609;28;20043;-73
2022/06/02 09:18:02;;;;;;;5.38;2.10;;;;;;;18.44;48.36;102389.84;5053755;28;20040;-72
2022/06/02 09:20:46;;;;;;;3.80;1.88;;;;;;;17.87;52.13;102392.69;5054105;28;20044;-72
2022/06/02 09:23:45;;;;;;;5.47;2.42;;;;;;;17.44;51.67;102393.16;5053616;28;20066;-72
2022/06/02 09:26:33;;;;;;;6.65;2.65;;;;;;;17.18;52.74;102389.41;5053548;28;20043;-73
2022/06/02 09:29:43;;;;;;;3.78;2.30;;;;;;;17.42;51.82;102383.53;5052801;28;20528;-73
2022/06/02 09:32:33;;;;;;;4.72;2.28;;;;;;;18.15;48.77;102388.16;5053508;28;20024;-73
2022/06/02 09:35:20;;;;;;;4.45;2.00;;;;;;;19.13;48.89;102377.44;5053147;28;20025;-71
2022/06/02 09:37:55;;;;;;;4.18;1.90;;;;;;;20.78;39.95;102384.28;5053073;28;20082;-72
2022/06/02 09:40:34;;;;;;;3.60;1.80;;;;;;;21.65;38.69;102383.63;5052937;28;20032;-71
2022/06/02 09:43:32;;;;;;;5.15;1.60;;;;;;;23.36;38.65;102383.59;5052705;28;20437;-72
2022/06/02 09:46:16;;;;;;;6.13;1.83;;;;;;;24.62;32.74;102392.47;5048450;28;20112;-72
2022/06/02 09:49:04;;;;;;;1.90;1.55;;;;;;;24.87;32.95;102383.03;5051861;28;20430;-72
2022/06/02 09:52:01;;;;;;;4.40;1.98;;;;;;;24.39;31.38;102380.91;5049938;28;20037;-72
2022/06/02 09:54:53;;;;;;;5.13;2.05;;;;;;;24.94;32.10;102390.19;5051442;28;20102;-72
2022/06/02 09:57:57;;;;;;;3.10;1.50;;;;;;;25.97;32.70;102377.81;5051713;28;20033;-71
2022/06/02 10:00:48;;;;;;;6.95;1.50;;;;;;;27.27;29.75;102374.75;5051263;28;20524;-72
2022/06/02 10:03:44;;;;;;;6.50;1.88;;;;;;;27.53;26.70;102367.56;5051634;28;20398;-72
2022/06/02 10:06:30;;;;;;;3.15;1.80;;;;;;;27.59;26.46;102363.97;5050280;28;20084;-72
2022/06/02 10:09:20;;;;;;;2.15;1.65;;;;;;;27.04;28.39;102367.03;5050949;28;20385;-73
2022/06/02 10:15:29;;;;;;;2.72;1.48;;;;;;;27.39;27.59;102361.31;5051320;28;20032;-73
2022/06/02 10:18:00;;;;;;;1.70;1.30;;;;;;;26.78;26.93;102365.16;5051475;28;20047;-72
2022/06/02 10:20:59;;;;;;;3.17;1.40;;;;;;;26.30;29.35;102367.00;5050974;28;20024;-72
2022/06/02 10:23:37;;;;;;;4.07;1.52;;;;;;;26.21;28.16;102352.75;5051125;28;20037;-72
2022/06/02 10:26:20;;;;;;;3.20;1.80;;;;;;;25.70;29.60;102347.72;5051287;28;20025;-72
2022/06/02 10:29:10;;;;;;;2.70;1.38;;;;;;;26.27;29.75;102356.50;5051232;28;20044;-72
2022/06/02 10:31:47;;;;;;;2.08;1.58;;;;;;;26.54;28.09;102349.19;5050723;28;20041;-72
2022/06/02 10:34:38;;;;;;;3.05;1.45;;;;;;;27.33;29.27;102346.59;5051266;28;20037;-72
2022/06/02 10:37:36;;;;;;;2.67;1.30;;;;;;;27.92;29.75;102339.19;5051036;28;20037;-73
2022/06/02 10:40:11;;;;;;;5.18;1.30;;;;;;;27.88;31.65;102348.06;5051428;28;20029;-72
2022/06/02 10:42:58;;;;;;;6.05;1.70;;;;;;;27.86;30.02;102339.25;5051016;28;20029;-72
2022/06/02 10:45:44;;;;;;;3.92;1.70;;;;;;;27.56;30.66;102340.66;5004179;28;1306492;-72
2022/06/02 10:48:34;;;;;;;6.47;1.40;;;;;;;27.36;31.49;102346.16;5051620;28;20068;-72
2022/06/02 10:51:00;;;;;;;3.88;1.42;;;;;;;27.23;31.36;102337.97;5052203;28;20116;-72
2022/06/02 10:53:43;;;;;;;5.78;1.70;;;;;;;27.16;31.08;102340.75;5051938;28;20461;-72
2022/06/02 10:56:13;;;;;;;4.03;1.70;;;;;;;27.40;29.28;102330.19;5051589;28;20039;-72
2022/06/02 10:58:44;;;;;;;3.05;1.80;;;;;;;26.33;32.16;102335.75;5051967;28;20029;-73
2022/06/02 11:01:43;;;;;;;3.22;1.60;;;;;;;25.25;34.93;102336.38;5051747;28;20051;-73
2022/06/02 11:04:38;;;;;;;2.60;1.30;;;;;;;26.08;33.81;102328.16;5051096;28;20025;-73
2022/06/02 11:07:26;;;;;;;6.57;1.33;;;;;;;26.67;32.75;102328.44;5051924;28;20050;-72
2022/06/02 11:10:16;;;;;;;1.95;1.20;;;;;;;27.26;32.30;102323.91;5051886;28;20033;-72
2022/06/02 11:12:53;;;;;;;2.70;1.50;;;;;;;27.35;30.90;102325.38;5052105;28;20485;-72
2022/06/02 11:15:43;;;;;;;2.88;1.50;;;;;;;27.13;29.44;102330.25;5051389;28;20039;-72
2022/06/02 11:18:26;;;;;;;4.80;1.55;;;;;;;27.26;29.75;102335.69;5051898;28;20088;-72
2022/06/02 11:21:32;;;;;;;3.38;1.42;;;;;;;27.34;32.22;102329.16;5050989;28;20033;-72
2022/06/02 11:24:16;;;;;;;1.77;1.30;;;;;;;26.60;31.38;102333.84;5051421;28;20116;-73
2022/06/02 11:26:56;;;;;;;3.13;1.58;;;;;;;24.43;34.11;102335.97;5051277;28;20084;-73
2022/06/02 11:29:59;;;;;;;3.33;1.75;;;;;;;22.82;37.11;102331.19;5051286;28;20052;-73
2022/06/02 11:32:46;;;;;;;1.98;1.25;;;;;;;22.94;38.62;102333.47;5051170;28;20033;-73
2022/06/02 11:35:44;;;;;;;2.65;1.38;;;;;;;23.75;37.29;102330.81;5050787;28;20040;-70
2022/06/02 11:38:47;;;;;;;2.45;1.30;;;;;;;24.86;34.48;102335.09;5051086;28;20028;-75
2022/06/02 11:41:33;;;;;;;3.78;1.52;;;;;;;25.65;33.98;102332.00;5050770;28;20028;-74
2022/06/02 11:44:06;;;;;;;2.90;1.20;;;;;;;26.32;31.49;102337.63;5050909;28;20433;-73
2022/06/02 11:46:56;;;;;;;3.03;1.40;;;;;;;26.52;30.08;102334.06;5050515;28;20049;-75
2022/06/02 11:49:48;;;;;;;2.42;1.40;;;;;;;26.19;29.18;102329.44;5049323;28;20033;-73
2022/06/02 11:52:45;;;;;;;2.47;1.30;;;;;;;26.58;31.85;102330.50;5050733;28;20029;-73
2022/06/02 11:55:20;;;;;;;4.15;1.30;;;;;;;27.21;29.86;102324.53;5050477;28;20033;-75
2022/06/02 11:57:53;;;;;;;2.45;1.30;;;;;;;26.94;29.95;102315.59;5050840;28;20353;-76
2022/06/02 12:00:44;;;;;;;2.90;1.23;;;;;;;27.16;31.43;102318.06;5050993;28;20111;-76
2022/06/02 12:03:29;;;;;;;1.92;1.25;;;;;;;27.07;30.14;102323.75;5050800;28;20029;-74
2022/06/02 12:06:17;;;;;;;4.55;1.20;;;;;;;26.72;29.95;102315.84;5050478;28;20473;-76
2022/06/02 12:09:19;;;;;;;2.95;1.27;;;;;;;26.57;30.82;102307.84;5050236;28;20423;-76
2022/06/02 12:12:17;;;;;;;2.55;1.35;;;;;;;26.77;30.16;102315.19;5050399;28;20029;-77
2022/06/02 12:14:56;;;;;;;8.45;1.55;;;;;;;27.11;30.04;102313.25;5049749;28;20116;-77
2022/06/02 12:17:40;;;;;;;4.30;1.42;;;;;;;26.79;30.17;102310.34;5050577;28;20028;-76
2022/06/02 12:20:14;;;;;;;2.15;1.05;;;;;;;26.92;28.83;102309.50;5049989;28;20037;-76
2022/06/02 12:23:04;;;;;;;1.20;1.00;;;;;;;27.00;28.70;102294.78;5050054;28;20048;-76
2022/06/02 12:25:48;;;;;;;1.27;1.00;;;;;;;27.02;27.54;102303.59;5050034;28;20111;-75
2022/06/02 12:28:20;;;;;;;1.75;1.02;;;;;;;26.78;29.00;102299.66;5050074;28;20314;-79
2022/06/02 12:31:20;;;;;;;5.50;1.20;;;;;;;26.01;31.76;102300.03;5050386;28;20036;-78
2022/06/02 12:33:48;;;;;;;3.40;0.90;;;;;;;26.67;30.34;102296.50;5049367;28;20345;-78
2022/06/02 12:36:22;;;;;;;2.72;1.13;;;;;;;27.33;28.02;102291.97;5049786;28;20482;-80
2022/06/02 12:39:12;;;;;;;2.47;1.05;;;;;;;27.19;28.98;102291.16;5049796;28;20032;-78
2022/06/02 12:42:05;;;;;;;8.05;1.42;;;;;;;27.05;27.60;102290.34;5049483;28;20036;-77
2022/06/02 12:45:01;;;;;;;2.08;1.38;;;;;;;26.78;28.05;102288.72;5049698;28;20107;-75
2022/06/02 12:48:08;;;;;;;1.05;0.88;;;;;;;27.51;29.51;102288.50;5049751;28;20043;-76
2022/06/02 12:50:44;;;;;;;1.42;1.02;;;;;;;27.39;27.28;102282.06;5042236;28;20112;-77
2022/06/02 12:53:15;;;;;;;1.33;0.93;;;;;;;27.65;27.06;102291.19;5049515;28;20029;-76
2022/06/02 12:56:08;;;;;;;1.27;0.80;;;;;;;27.16;26.47;102283.38;5049549;28;20055;-76
2022/06/02 12:59:06;;;;;;;2.97;1.00;;;;;;;26.87;27.88;102284.72;5049338;28;20037;-77